Torrington, Wyoming
Current Conditions -  °F | °C
As of 3:15 PM on Sunday 21 Dec 2014 (Local Time) from KGUR Reporting Station
Clear Clear  
Wind Chill: 55°   Ceiling: Unl
Heat Index: 55°   Visibility: 10mi
Dew Point: 32°   Wind: 10mph
Humidity: 41%   Direction: 300°WNW
Pressure: 29.47"   Gusts: 20mph
Location:  42.06°N, 104.18°W
Report Text: KGUR 212215Z AUTO 30009G17KT 10SM CLR 13/00 A2947 RMK AO2 T01300000
Loading
Personal Weather Stations






























Interactive Weather Map New forecast layout! Learn more

10-Day Weather Forecast

Advertisements
Track Severe Weather on mobile